sensor_id;sensor_type;location;lat;lon;timestamp;pressure;altitude;pressure_sealevel;temperature;humidity
35878;BME280;21982;49.804;24.072;2023-03-25T00:23:44;96303.31;;;13.02;64.28
35878;BME280;21982;49.804;24.072;2023-03-25T00:26:10;95685.03;;;9.04;64.87
35878;BME280;21982;49.804;24.072;2023-03-25T00:28:37;96198.88;;;12.19;65.68
35878;BME280;21982;49.804;24.072;2023-03-25T00:31:06;96225.66;;;12.47;66.06
35878;BME280;21982;49.804;24.072;2023-03-25T00:33:32;96253.19;;;12.64;66.08
35878;BME280;21982;49.804;24.072;2023-03-25T00:35:59;96326.72;;;12.94;66.08
35878;BME280;21982;49.804;24.072;2023-03-25T00:38:29;96136.59;;;11.91;66.54
35878;BME280;21982;49.804;24.072;2023-03-25T00:41:19;96312.28;;;12.90;66.33
35878;BME280;21982;49.804;24.072;2023-03-25T00:43:47;96294.13;;;12.87;66.83
35878;BME280;21982;49.804;24.072;2023-03-25T00:46:13;96064.88;;;11.50;67.10
35878;BME280;21982;49.804;24.072;2023-03-25T00:48:38;96222.66;;;12.44;67.17
35878;BME280;21982;49.804;24.072;2023-03-25T00:51:04;96288.81;;;12.87;67.55
35878;BME280;21982;49.804;24.072;2023-03-25T00:53:35;96051.28;;;11.46;67.68
35878;BME280;21982;49.804;24.072;2023-03-25T00:56:01;95984.47;;;10.96;67.90
35878;BME280;21982;49.804;24.072;2023-03-25T00:58:28;96284.31;;;12.87;67.84
35878;BME280;21982;49.804;24.072;2023-03-25T01:00:54;96073.34;;;11.58;68.27
35878;BME280;21982;49.804;24.072;2023-03-25T01:03:23;96263.16;;;12.81;68.70
35878;BME280;21982;49.804;24.072;2023-03-25T01:05:50;96271.25;;;12.86;68.25
35878;BME280;21982;49.804;24.072;2023-03-25T01:08:19;95909.19;;;10.55;68.48
35878;BME280;21982;49.804;24.072;2023-03-25T01:10:50;95632.59;;;8.90;68.19
35878;BME280;21982;49.804;24.072;2023-03-25T01:13:15;96081.31;;;11.77;68.57
35878;BME280;21982;49.804;24.072;2023-03-25T01:15:41;96248.72;;;12.88;68.47
35878;BME280;21982;49.804;24.072;2023-03-25T01:18:06;96190.22;;;12.53;68.65
35878;BME280;21982;49.804;24.072;2023-03-25T01:20:31;96241.56;;;12.89;69.00
35878;BME280;21982;49.804;24.072;2023-03-25T01:22:57;95948.47;;;11.06;68.78
35878;BME280;21982;49.804;24.072;2023-03-25T01:25:22;96061.00;;;11.82;68.68
35878;BME280;21982;49.804;24.072;2023-03-25T01:27:48;96119.03;;;12.20;68.81
35878;BME280;21982;49.804;24.072;2023-03-25T01:30:13;96194.28;;;12.67;69.15
35878;BME280;21982;49.804;24.072;2023-03-25T01:32:41;96090.59;;;11.97;68.93
35878;BME280;21982;49.804;24.072;2023-03-25T01:35:07;95993.91;;;11.52;68.88
35878;BME280;21982;49.804;24.072;2023-03-25T01:37:35;96097.09;;;12.13;69.35
35878;BME280;21982;49.804;24.072;2023-03-25T01:40:01;96065.19;;;11.90;69.26
35878;BME280;21982;49.804;24.072;2023-03-25T01:42:29;96164.25;;;12.55;69.48
35878;BME280;21982;49.804;24.072;2023-03-25T01:45:24;96223.09;;;12.94;69.10
35878;BME280;21982;49.804;24.072;2023-03-25T01:47:59;96179.13;;;12.56;69.47
35878;BME280;21982;49.804;24.072;2023-03-25T01:50:27;96162.72;;;12.48;69.67
35878;BME280;21982;49.804;24.072;2023-03-25T01:52:55;96234.50;;;12.83;70.09
35878;BME280;21982;49.804;24.072;2023-03-25T01:55:21;96222.25;;;12.70;70.23
35878;BME280;21982;49.804;24.072;2023-03-25T01:57:49;96178.31;;;12.44;70.64
35878;BME280;21982;49.804;24.072;2023-03-25T02:00:18;96114.84;;;12.01;70.40
35878;BME280;21982;49.804;24.072;2023-03-25T02:02:45;96167.44;;;12.34;70.78
35878;BME280;21982;49.804;24.072;2023-03-25T02:05:18;96050.66;;;11.62;70.65
35878;BME280;21982;49.804;24.072;2023-03-25T02:07:47;96202.94;;;12.63;71.23
35878;BME280;21982;49.804;24.072;2023-03-25T02:10:14;96110.66;;;11.93;71.49
35878;BME280;21982;49.804;24.072;2023-03-25T02:12:41;95698.50;;;9.21;71.02
35878;BME280;21982;49.804;24.072;2023-03-25T02:15:10;96026.97;;;11.49;71.46
35878;BME280;21982;49.804;24.072;2023-03-25T02:21:28;96171.16;;;12.45;71.49
35878;BME280;21982;49.804;24.072;2023-03-25T02:40:14;96184.25;;;12.69;72.04
35878;BME280;21982;49.804;24.072;2023-03-25T02:43:00;96104.88;;;12.38;71.46
35878;BME280;21982;49.804;24.072;2023-03-25T02:45:45;95942.81;;;11.33;71.35
35878;BME280;21982;49.804;24.072;2023-03-25T02:48:21;96187.16;;;12.80;71.54
35878;BME280;21982;49.804;24.072;2023-03-25T02:50:54;95963.50;;;11.24;71.66
35878;BME280;21982;49.804;24.072;2023-03-25T02:53:32;96142.78;;;12.45;71.84
35878;BME280;21982;49.804;24.072;2023-03-25T02:56:03;96108.53;;;12.25;72.14
35878;BME280;21982;49.804;24.072;2023-03-25T02:58:33;96180.44;;;12.65;72.50
35878;BME280;21982;49.804;24.072;2023-03-25T03:00:59;96170.25;;;12.62;72.66
35878;BME280;21982;49.804;24.072;2023-03-25T03:03:27;96121.03;;;12.36;72.67
35878;BME280;21982;49.804;24.072;2023-03-25T03:05:56;96156.06;;;12.68;72.40
35878;BME280;21982;49.804;24.072;2023-03-25T03:19:35;96152.25;;;12.64;72.76
35878;BME280;21982;49.804;24.072;2023-03-25T03:25:01;96162.88;;;12.64;73.04
35878;BME280;21982;49.804;24.072;2023-03-25T03:35:47;96134.56;;;12.47;73.25
35878;BME280;21982;49.804;24.072;2023-03-25T03:38:18;96164.38;;;12.60;73.61
35878;BME280;21982;49.804;24.072;2023-03-25T03:40:50;96070.31;;;12.03;73.82
35878;BME280;21982;49.804;24.072;2023-03-25T03:43:30;96147.50;;;12.55;73.46
35878;BME280;21982;49.804;24.072;2023-03-25T03:46:01;96128.88;;;12.31;73.66
35878;BME280;21982;49.804;24.072;2023-03-25T03:48:33;96180.53;;;12.59;73.73
35878;BME280;21982;49.804;24.072;2023-03-25T03:51:08;96173.03;;;12.56;74.10
35878;BME280;21982;49.804;24.072;2023-03-25T03:53:41;96133.50;;;12.36;73.73
35878;BME280;21982;49.804;24.072;2023-03-25T03:56:41;96173.69;;;12.51;74.21
35878;BME280;21982;49.804;24.072;2023-03-25T03:59:10;95919.13;;;10.90;73.91
35878;BME280;21982;49.804;24.072;2023-03-25T04:01:41;96154.84;;;12.29;74.30
35878;BME280;21982;49.804;24.072;2023-03-25T04:04:23;96165.50;;;12.41;74.35
35878;BME280;21982;49.804;24.072;2023-03-25T04:06:56;96115.09;;;12.11;74.27
35878;BME280;21982;49.804;24.072;2023-03-25T04:12:18;96155.91;;;12.40;74.53
35878;BME280;21982;49.804;24.072;2023-03-25T04:14:45;96033.00;;;11.56;74.62
35878;BME280;21982;49.804;24.072;2023-03-25T04:17:11;96091.69;;;11.78;74.67
35878;BME280;21982;49.804;24.072;2023-03-25T04:19:38;95938.47;;;11.08;74.55
35878;BME280;21982;49.804;24.072;2023-03-25T04:22:04;96151.31;;;12.47;74.53
35878;BME280;21982;49.804;24.072;2023-03-25T04:24:30;95868.28;;;10.69;74.32
35878;BME280;21982;49.804;24.072;2023-03-25T04:26:56;96121.28;;;12.35;74.35
35878;BME280;21982;49.804;24.072;2023-03-25T04:29:24;96124.06;;;12.40;73.97
35878;BME280;21982;49.804;24.072;2023-03-25T04:31:50;96086.38;;;12.20;74.44
35878;BME280;21982;49.804;24.072;2023-03-25T04:34:19;96137.09;;;12.53;74.52
35878;BME280;21982;49.804;24.072;2023-03-25T04:36:44;96158.13;;;12.55;74.61
35878;BME280;21982;49.804;24.072;2023-03-25T04:39:10;96135.84;;;12.56;74.50
35878;BME280;21982;49.804;24.072;2023-03-25T04:41:37;96139.31;;;12.56;74.38
35878;BME280;21982;49.804;24.072;2023-03-25T04:44:03;96148.88;;;12.57;74.62
35878;BME280;21982;49.804;24.072;2023-03-25T04:46:34;96060.66;;;12.08;74.52
35878;BME280;21982;49.804;24.072;2023-03-25T04:49:02;96112.53;;;12.46;74.49
35878;BME280;21982;49.804;24.072;2023-03-25T04:51:31;96115.72;;;12.48;74.50
35878;BME280;21982;49.804;24.072;2023-03-25T04:53:57;96041.22;;;11.96;74.21
35878;BME280;21982;49.804;24.072;2023-03-25T04:56:24;96066.63;;;12.16;74.61
35878;BME280;21982;49.804;24.072;2023-03-25T04:58:49;96025.53;;;11.95;74.18
35878;BME280;21982;49.804;24.072;2023-03-25T05:01:20;96003.69;;;11.81;74.15
35878;BME280;21982;49.804;24.072;2023-03-25T05:03:46;96119.47;;;12.47;74.64
35878;BME280;21982;49.804;24.072;2023-03-25T05:06:15;96127.53;;;12.52;74.24
35878;BME280;21982;49.804;24.072;2023-03-25T05:08:40;96111.00;;;12.38;74.65
35878;BME280;21982;49.804;24.072;2023-03-25T05:11:06;96131.22;;;12.51;74.70
35878;BME280;21982;49.804;24.072;2023-03-25T05:13:31;96147.16;;;12.63;74.83
35878;BME280;21982;49.804;24.072;2023-03-25T05:15:57;96182.50;;;12.63;75.12
35878;BME280;21982;49.804;24.072;2023-03-25T05:18:22;96145.78;;;12.60;74.93
35878;BME280;21982;49.804;24.072;2023-03-25T05:20:47;96118.28;;;12.43;74.98
35878;BME280;21982;49.804;24.072;2023-03-25T05:23:15;96145.31;;;12.63;74.95
35878;BME280;21982;49.804;24.072;2023-03-25T05:25:46;96151.34;;;12.70;74.87
35878;BME280;21982;49.804;24.072;2023-03-25T05:28:12;96144.88;;;12.66;75.15
35878;BME280;21982;49.804;24.072;2023-03-25T05:30:42;96038.44;;;11.91;74.84
35878;BME280;21982;49.804;24.072;2023-03-25T05:33:10;96069.78;;;12.13;74.89
35878;BME280;21982;49.804;24.072;2023-03-25T05:35:37;96076.13;;;12.23;74.95
35878;BME280;21982;49.804;24.072;2023-03-25T05:38:04;96005.31;;;11.82;74.87
35878;BME280;21982;49.804;24.072;2023-03-25T05:40:30;96112.53;;;12.46;74.78
35878;BME280;21982;49.804;24.072;2023-03-25T05:42:56;96023.19;;;11.87;74.98
35878;BME280;21982;49.804;24.072;2023-03-25T05:45:22;96111.81;;;12.51;74.75
35878;BME280;21982;49.804;24.072;2023-03-25T05:47:47;96102.72;;;12.47;75.04
35878;BME280;21982;49.804;24.072;2023-03-25T05:50:13;95980.91;;;11.62;74.90
35878;BME280;21982;49.804;24.072;2023-03-25T05:52:39;96155.28;;;12.80;74.91
35878;BME280;21982;49.804;24.072;2023-03-25T05:55:14;96055.34;;;12.08;74.61
35878;BME280;21982;49.804;24.072;2023-03-25T05:57:39;96063.28;;;12.20;74.74
35878;BME280;21982;49.804;24.072;2023-03-25T06:00:07;96106.88;;;12.43;74.70
35878;BME280;21982;49.804;24.072;2023-03-25T06:02:34;96007.50;;;11.85;75.18
35878;BME280;21982;49.804;24.072;2023-03-25T06:05:06;96168.09;;;12.83;74.97
35878;BME280;21982;49.804;24.072;2023-03-25T06:07:34;96109.88;;;12.46;74.95
35878;BME280;21982;49.804;24.072;2023-03-25T06:10:08;96161.63;;;12.79;74.92
35878;BME280;21982;49.804;24.072;2023-03-25T06:12:48;96166.94;;;12.79;74.90
35878;BME280;21982;49.804;24.072;2023-03-25T06:15:22;96161.28;;;12.75;75.14
35878;BME280;21982;49.804;24.072;2023-03-25T06:17:54;96066.00;;;11.90;75.34
35878;BME280;21982;49.804;24.072;2023-03-25T06:20:20;96098.41;;;12.34;75.29
35878;BME280;21982;49.804;24.072;2023-03-25T06:23:06;96078.19;;;12.21;74.64
35878;BME280;21982;49.804;24.072;2023-03-25T06:25:53;96037.31;;;11.99;75.02
35878;BME280;21982;49.804;24.072;2023-03-25T06:28:19;95968.56;;;11.56;74.89
35878;BME280;21982;49.804;24.072;2023-03-25T06:30:45;96157.00;;;12.86;75.23
35878;BME280;21982;49.804;24.072;2023-03-25T06:33:11;96160.81;;;12.90;75.24
35878;BME280;21982;49.804;24.072;2023-03-25T06:35:39;96067.38;;;12.34;75.04
35878;BME280;21982;49.804;24.072;2023-03-25T06:38:07;95727.97;;;10.28;74.71
35878;BME280;21982;49.804;24.072;2023-03-25T06:40:34;96161.19;;;13.05;75.22
35878;BME280;21982;49.804;24.072;2023-03-25T06:42:59;96110.22;;;12.85;74.65
35878;BME280;21982;49.804;24.072;2023-03-25T06:45:25;96173.31;;;13.13;74.90
35878;BME280;21982;49.804;24.072;2023-03-25T06:47:50;96156.94;;;13.16;75.03
35878;BME280;21982;49.804;24.072;2023-03-25T06:50:16;96031.72;;;12.42;74.76
35878;BME280;21982;49.804;24.072;2023-03-25T06:52:41;96148.72;;;13.29;74.46
35878;BME280;21982;49.804;24.072;2023-03-25T06:55:07;95950.13;;;12.02;74.68
35878;BME280;21982;49.804;24.072;2023-03-25T06:57:34;96021.31;;;12.52;74.64
35878;BME280;21982;49.804;24.072;2023-03-25T07:00:00;96114.16;;;13.17;74.29
35878;BME280;21982;49.804;24.072;2023-03-25T07:02:25;95946.75;;;12.19;74.59
35878;BME280;21982;49.804;24.072;2023-03-25T07:04:51;96137.22;;;13.52;74.47
35878;BME280;21982;49.804;24.072;2023-03-25T07:07:16;96144.84;;;13.60;74.18
35878;BME280;21982;49.804;24.072;2023-03-25T07:09:41;96031.56;;;12.95;73.61
35878;BME280;21982;49.804;24.072;2023-03-25T07:12:07;96094.13;;;13.50;73.68
35878;BME280;21982;49.804;24.072;2023-03-25T07:14:32;96148.66;;;13.92;73.71
35878;BME280;21982;49.804;24.072;2023-03-25T07:16:57;96146.78;;;14.04;73.45
35878;BME280;21982;49.804;24.072;2023-03-25T07:19:23;96104.31;;;13.81;72.71
35878;BME280;21982;49.804;24.072;2023-03-25T07:21:48;96146.50;;;14.18;72.86
35878;BME280;21982;49.804;24.072;2023-03-25T07:24:14;96143.53;;;14.31;72.61
35878;BME280;21982;49.804;24.072;2023-03-25T07:26:39;96152.06;;;14.45;72.71
35878;BME280;21982;49.804;24.072;2023-03-25T07:29:05;96036.50;;;13.84;72.14
35878;BME280;21982;49.804;24.072;2023-03-25T07:31:30;96038.50;;;13.93;71.87
35878;BME280;21982;49.804;24.072;2023-03-25T07:33:56;96091.47;;;14.52;71.67
35878;BME280;21982;49.804;24.072;2023-03-25T07:36:23;96132.72;;;14.83;71.14
35878;BME280;21982;49.804;24.072;2023-03-25T07:38:49;96119.72;;;14.86;70.57
35878;BME280;21982;49.804;24.072;2023-03-25T07:41:14;96149.97;;;14.97;70.93
35878;BME280;21982;49.804;24.072;2023-03-25T07:43:41;96145.78;;;15.01;70.38
35878;BME280;21982;49.804;24.072;2023-03-25T07:46:07;96095.22;;;14.56;70.65
35878;BME280;21982;49.804;24.072;2023-03-25T07:48:32;96094.94;;;14.52;70.36
35878;BME280;21982;49.804;24.072;2023-03-25T07:50:58;96139.16;;;14.70;70.80
35878;BME280;21982;49.804;24.072;2023-03-25T07:53:23;96098.91;;;14.38;70.98
35878;BME280;21982;49.804;24.072;2023-03-25T07:55:49;96102.16;;;14.40;70.90
35878;BME280;21982;49.804;24.072;2023-03-25T07:58:16;96079.63;;;14.31;70.94
35878;BME280;21982;49.804;24.072;2023-03-25T08:00:42;96128.66;;;14.63;71.06
35878;BME280;21982;49.804;24.072;2023-03-25T08:03:10;96100.97;;;14.48;70.68
35878;BME280;21982;49.804;24.072;2023-03-25T08:05:36;96122.84;;;14.66;71.09
35878;BME280;21982;49.804;24.072;2023-03-25T08:08:04;95766.09;;;12.49;70.63
35878;BME280;21982;49.804;24.072;2023-03-25T08:10:30;96122.59;;;14.68;70.85
35878;BME280;21982;49.804;24.072;2023-03-25T08:12:55;96151.59;;;14.64;70.90
35878;BME280;21982;49.804;24.072;2023-03-25T08:15:20;96095.88;;;14.80;70.65
35878;BME280;21982;49.804;24.072;2023-03-25T08:17:49;96026.97;;;14.50;69.89
35878;BME280;21982;49.804;24.072;2023-03-25T08:20:17;96120.91;;;15.34;69.38
35878;BME280;21982;49.804;24.072;2023-03-25T08:22:46;96095.84;;;15.35;69.21
35878;BME280;21982;49.804;24.072;2023-03-25T08:25:12;96116.91;;;15.53;68.57
35878;BME280;21982;49.804;24.072;2023-03-25T08:27:41;96102.22;;;15.34;68.46
35878;BME280;21982;49.804;24.072;2023-03-25T08:30:07;96118.19;;;15.51;68.74
35878;BME280;21982;49.804;24.072;2023-03-25T08:32:34;96089.84;;;15.45;68.62
35878;BME280;21982;49.804;24.072;2023-03-25T08:35:00;95932.38;;;14.47;68.12
35878;BME280;21982;49.804;24.072;2023-03-25T08:37:29;96071.59;;;15.36;68.01
35878;BME280;21982;49.804;24.072;2023-03-25T08:39:54;95946.19;;;14.66;67.97
35878;BME280;21982;49.804;24.072;2023-03-25T08:45:05;96114.16;;;15.48;67.80
35878;BME280;21982;49.804;24.072;2023-03-25T08:47:32;96002.88;;;14.61;68.33
35878;BME280;21982;49.804;24.072;2023-03-25T08:49:57;96079.81;;;14.74;68.53
35878;BME280;21982;49.804;24.072;2023-03-25T08:52:23;96017.41;;;14.03;68.87
35878;BME280;21982;49.804;24.072;2023-03-25T08:54:50;96107.28;;;14.41;69.63
35878;BME280;21982;49.804;24.072;2023-03-25T08:57:15;96048.66;;;13.80;70.07
35878;BME280;21982;49.804;24.072;2023-03-25T08:59:42;96072.53;;;13.91;70.32
35878;BME280;21982;49.804;24.072;2023-03-25T09:02:13;96113.22;;;14.03;70.17
35878;BME280;21982;49.804;24.072;2023-03-25T09:04:38;96119.69;;;14.07;70.84
35878;BME280;21982;49.804;24.072;2023-03-25T09:07:06;96027.44;;;13.39;70.88
35878;BME280;21982;49.804;24.072;2023-03-25T09:09:42;95913.03;;;12.54;70.97
35878;BME280;21982;49.804;24.072;2023-03-25T09:12:08;96130.34;;;13.79;71.45
35878;BME280;21982;49.804;24.072;2023-03-25T09:14:39;95999.31;;;13.03;71.23
35878;BME280;21982;49.804;24.072;2023-03-25T09:17:05;96020.44;;;13.10;71.44
35878;BME280;21982;49.804;24.072;2023-03-25T09:19:33;95994.47;;;13.00;71.50
35878;BME280;21982;49.804;24.072;2023-03-25T09:21:58;96127.69;;;13.79;71.71
35878;BME280;21982;49.804;24.072;2023-03-25T09:24:24;96103.53;;;13.69;71.71
35878;BME280;21982;49.804;24.072;2023-03-25T09:26:49;96102.97;;;13.67;71.58
35878;BME280;21982;49.804;24.072;2023-03-25T09:29:15;95988.25;;;12.83;72.04
35878;BME280;21982;49.804;24.072;2023-03-25T09:31:41;96124.56;;;13.82;72.11
35878;BME280;21982;49.804;24.072;2023-03-25T09:34:09;96102.69;;;13.80;71.60
35878;BME280;21982;49.804;24.072;2023-03-25T09:36:36;95709.25;;;11.29;71.77
35878;BME280;21982;49.804;24.072;2023-03-25T09:39:01;96117.41;;;13.99;72.04
35878;BME280;21982;49.804;24.072;2023-03-25T09:44:29;95570.63;;;10.65;71.07
35878;BME280;21982;49.804;24.072;2023-03-25T09:47:02;95650.63;;;11.14;71.23
35878;BME280;21982;49.804;24.072;2023-03-25T09:49:37;96084.53;;;14.05;71.13
35878;BME280;21982;49.804;24.072;2023-03-25T09:52:04;95963.47;;;13.46;71.19
35878;BME280;21982;49.804;24.072;2023-03-25T09:54:47;96040.69;;;13.96;71.35
35878;BME280;21982;49.804;24.072;2023-03-25T09:57:17;95763.41;;;12.20;70.89
35878;BME280;21982;49.804;24.072;2023-03-25T09:59:50;96110.75;;;14.42;70.70
35878;BME280;21982;49.804;24.072;2023-03-25T10:10:15;96012.38;;;13.73;70.51
35878;BME280;21982;49.804;24.072;2023-03-25T10:18:56;96107.16;;;14.36;70.45
35878;BME280;21982;49.804;24.072;2023-03-25T10:24:12;96098.66;;;14.51;69.76
35878;BME280;21982;49.804;24.072;2023-03-25T10:29:30;96099.03;;;14.43;69.69
35878;BME280;21982;49.804;24.072;2023-03-25T10:32:05;96044.78;;;14.16;69.79
35878;BME280;21982;49.804;24.072;2023-03-25T10:34:48;96108.00;;;14.54;69.17
35878;BME280;21982;49.804;24.072;2023-03-25T10:37:19;96011.66;;;13.78;69.99
35878;BME280;21982;49.804;24.072;2023-03-25T10:40:40;95967.53;;;13.49;69.54
35878;BME280;21982;49.804;24.072;2023-03-25T10:45:39;95650.03;;;11.24;69.66
35878;BME280;21982;49.804;24.072;2023-03-25T10:48:26;96106.97;;;14.26;69.85
35878;BME280;21982;49.804;24.072;2023-03-25T10:51:02;96109.38;;;14.28;69.99
35878;BME280;21982;49.804;24.072;2023-03-25T10:53:33;96107.06;;;14.31;70.29
35878;BME280;21982;49.804;24.072;2023-03-25T10:58:36;96100.84;;;14.26;69.84
35878;BME280;21982;49.804;24.072;2023-03-25T11:01:10;96095.50;;;14.26;69.84
35878;BME280;21982;49.804;24.072;2023-03-25T11:03:36;96095.06;;;14.00;69.88
35878;BME280;21982;49.804;24.072;2023-03-25T11:06:04;96048.34;;;13.76;70.25
35878;BME280;21982;49.804;24.072;2023-03-25T11:08:31;96018.91;;;13.54;70.03
35878;BME280;21982;49.804;24.072;2023-03-25T11:10:57;96071.25;;;13.77;70.10
35878;BME280;21982;49.804;24.072;2023-03-25T11:13:29;96098.59;;;14.18;70.42
35878;BME280;21982;49.804;24.072;2023-03-25T11:15:58;95977.47;;;13.41;70.37
35878;BME280;21982;49.804;24.072;2023-03-25T11:18:29;95925.00;;;13.08;69.99
35878;BME280;21982;49.804;24.072;2023-03-25T11:21:12;96023.63;;;13.64;69.88
35878;BME280;21982;49.804;24.072;2023-03-25T11:23:47;96009.09;;;13.55;69.93
35878;BME280;21982;49.804;24.072;2023-03-25T11:26:26;96099.06;;;14.15;69.98
35878;BME280;21982;49.804;24.072;2023-03-25T11:29:00;96102.28;;;14.17;69.46
35878;BME280;21982;49.804;24.072;2023-03-25T11:31:28;96100.00;;;14.08;69.36
35878;BME280;21982;49.804;24.072;2023-03-25T11:34:23;96100.50;;;14.05;69.07
35878;BME280;21982;49.804;24.072;2023-03-25T11:36:59;96094.59;;;14.03;69.63
35878;BME280;21982;49.804;24.072;2023-03-25T11:41:57;96065.59;;;13.73;69.97
35878;BME280;21982;49.804;24.072;2023-03-25T11:44:30;96046.84;;;13.68;70.00
35878;BME280;21982;49.804;24.072;2023-03-25T11:47:04;95994.06;;;13.20;69.77
35878;BME280;21982;49.804;24.072;2023-03-25T11:49:34;95874.03;;;12.43;69.96
35878;BME280;21982;49.804;24.072;2023-03-25T11:52:07;96051.03;;;13.24;69.36
35878;BME280;21982;49.804;24.072;2023-03-25T11:54:34;95699.59;;;11.00;69.36
35878;BME280;21982;49.804;24.072;2023-03-25T11:57:02;96098.78;;;13.71;69.44
35878;BME280;21982;49.804;24.072;2023-03-25T11:59:40;96093.84;;;13.63;69.34
35878;BME280;21982;49.804;24.072;2023-03-25T12:02:28;96102.91;;;13.50;69.57
35878;BME280;21982;49.804;24.072;2023-03-25T12:05:00;96027.03;;;12.96;70.34
35878;BME280;21982;49.804;24.072;2023-03-25T12:07:26;95967.16;;;12.53;70.54
35878;BME280;21982;49.804;24.072;2023-03-25T12:15:23;96102.25;;;13.20;69.55
35878;BME280;21982;49.804;24.072;2023-03-25T12:20:51;96106.66;;;13.02;69.37
35878;BME280;21982;49.804;24.072;2023-03-25T12:23:41;96009.06;;;12.28;68.91
35878;BME280;21982;49.804;24.072;2023-03-25T12:26:20;95588.47;;;9.63;69.13
35878;BME280;21982;49.804;24.072;2023-03-25T12:29:09;96108.50;;;13.02;68.88
35878;BME280;21982;49.804;24.072;2023-03-25T12:37:35;95753.00;;;10.55;69.12
35878;BME280;21982;49.804;24.072;2023-03-25T12:45:51;96112.53;;;12.93;69.39
35878;BME280;21982;49.804;24.072;2023-03-25T13:15:31;96112.41;;;12.64;69.33
35878;BME280;21982;49.804;24.072;2023-03-25T13:20:33;95429.72;;;8.20;69.92
35878;BME280;21982;49.804;24.072;2023-03-25T13:23:04;95726.00;;;9.87;69.81
35878;BME280;21982;49.804;24.072;2023-03-25T13:28:53;96116.53;;;12.49;69.28
35878;BME280;21982;49.804;24.072;2023-03-25T13:31:32;95992.81;;;11.71;69.71
35878;BME280;21982;49.804;24.072;2023-03-25T13:36:36;96077.03;;;12.17;69.82
35878;BME280;21982;49.804;24.072;2023-03-25T13:39:12;96001.63;;;11.83;69.45
35878;BME280;21982;49.804;24.072;2023-03-25T13:41:46;96013.97;;;11.89;69.53
35878;BME280;21982;49.804;24.072;2023-03-25T13:44:30;96086.63;;;12.30;69.47
35878;BME280;21982;49.804;24.072;2023-03-25T13:47:30;96113.44;;;12.40;69.41
35878;BME280;21982;49.804;24.072;2023-03-25T13:50:19;95991.44;;;11.68;69.58
35878;BME280;21982;49.804;24.072;2023-03-25T13:55:50;96136.66;;;12.45;69.47
35878;BME280;21982;49.804;24.072;2023-03-25T13:58:45;96113.66;;;12.50;68.93
35878;BME280;21982;49.804;24.072;2023-03-25T14:01:52;96113.34;;;12.58;68.45
35878;BME280;21982;49.804;24.072;2023-03-25T14:17:24;96159.34;;;12.29;68.39
35878;BME280;21982;49.804;24.072;2023-03-25T14:19:56;95542.38;;;8.74;67.97
35878;BME280;21982;49.804;24.072;2023-03-25T14:22:29;95859.41;;;10.94;67.77
35878;BME280;21982;49.804;24.072;2023-03-25T14:24:57;95278.19;;;7.31;67.60
35878;BME280;21982;49.804;24.072;2023-03-25T14:27:29;95675.72;;;9.75;67.40
35878;BME280;21982;49.804;24.072;2023-03-25T14:32:45;95897.53;;;11.34;67.31
35878;BME280;21982;49.804;24.072;2023-03-25T14:49:08;96104.88;;;12.38;67.46
35878;BME280;21982;49.804;24.072;2023-03-25T14:57:04;96101.13;;;12.16;67.47
35878;BME280;21982;49.804;24.072;2023-03-25T14:59:48;96024.41;;;11.72;67.60
35878;BME280;21982;49.804;24.072;2023-03-25T15:02:32;95633.25;;;9.03;67.36
35878;BME280;21982;49.804;24.072;2023-03-25T15:07:58;96116.38;;;12.08;67.58
35878;BME280;21982;49.804;24.072;2023-03-25T15:34:03;95746.06;;;9.76;68.60
35878;BME280;21982;49.804;24.072;2023-03-25T15:36:42;96033.22;;;11.55;68.84
35878;BME280;21982;49.804;24.072;2023-03-25T15:50:41;96011.50;;;11.16;69.28
35878;BME280;21982;49.804;24.072;2023-03-25T15:55:55;96104.81;;;11.55;69.46
35878;BME280;21982;49.804;24.072;2023-03-25T15:58:28;95985.72;;;10.93;69.63
35878;BME280;21982;49.804;24.072;2023-03-25T16:01:11;95937.53;;;10.48;69.44
35878;BME280;21982;49.804;24.072;2023-03-25T16:03:41;96026.69;;;10.91;69.74
35878;BME280;21982;49.804;24.072;2023-03-25T16:06:13;96131.88;;;11.75;69.80
35878;BME280;21982;49.804;24.072;2023-03-25T16:08:43;95686.66;;;9.05;69.58
35878;BME280;21982;49.804;24.072;2023-03-25T16:11:14;95999.03;;;11.05;69.78
35878;BME280;21982;49.804;24.072;2023-03-25T16:21:58;95810.59;;;9.25;70.06
35878;BME280;21982;49.804;24.072;2023-03-25T16:24:35;95859.44;;;9.84;70.15
35878;BME280;21982;49.804;24.072;2023-03-25T16:27:28;96106.00;;;11.40;70.22
35878;BME280;21982;49.804;24.072;2023-03-25T16:29:56;95258.53;;;5.83;70.08
35878;BME280;21982;49.804;24.072;2023-03-25T17:44:44;95377.16;;;4.88;74.90
35878;BME280;21982;49.804;24.072;2023-03-25T17:47:15;96154.88;;;9.57;75.85
35878;BME280;21982;49.804;24.072;2023-03-25T17:49:41;96126.84;;;9.50;75.94
35878;BME280;21982;49.804;24.072;2023-03-25T17:52:06;95827.44;;;7.46;75.75
35878;BME280;21982;49.804;24.072;2023-03-25T17:54:36;96138.44;;;9.49;76.17
35878;BME280;21982;49.804;24.072;2023-03-25T17:57:24;95779.06;;;7.14;75.88
35878;BME280;21982;49.804;24.072;2023-03-25T17:59:50;95876.44;;;7.73;76.60
35878;BME280;21982;49.804;24.072;2023-03-25T18:02:22;96191.91;;;9.44;76.38
35878;BME280;21982;49.804;24.072;2023-03-25T18:04:53;95842.84;;;7.55;76.68
35878;BME280;21982;49.804;24.072;2023-03-25T18:30:54;96168.19;;;9.24;76.50
35878;BME280;21982;49.804;24.072;2023-03-25T18:33:21;96189.94;;;9.20;77.28
35878;BME280;21982;49.804;24.072;2023-03-25T18:35:51;95628.66;;;5.78;76.81
35878;BME280;21982;49.804;24.072;2023-03-25T18:38:28;95402.56;;;4.13;76.87
35878;BME280;21982;49.804;24.072;2023-03-25T18:40:57;95859.56;;;6.68;77.15
35878;BME280;21982;49.804;24.072;2023-03-25T18:43:23;95972.06;;;7.40;77.55
35878;BME280;21982;49.804;24.072;2023-03-25T18:45:48;96180.81;;;9.09;77.60